createdAt,value
2018-08-17T00:03:48.624Z,20.80
2018-08-17T00:13:52.068Z,20.70
2018-08-17T00:23:55.871Z,20.60
2018-08-17T00:33:59.568Z,20.60
2018-08-17T00:44:03.139Z,20.50
2018-08-17T00:54:06.644Z,20.50
2018-08-17T01:04:10.130Z,20.40
2018-08-17T01:14:13.535Z,20.30
2018-08-17T01:24:17.007Z,20.40
2018-08-17T01:34:20.713Z,20.40
2018-08-17T01:44:24.344Z,20.20
2018-08-17T01:54:27.721Z,20.00
2018-08-17T02:04:31.234Z,19.70
2018-08-17T02:14:34.654Z,19.40
2018-08-17T02:24:38.031Z,19.20
2018-08-17T02:34:41.976Z,19.10
2018-08-17T02:44:45.628Z,19.10
2018-08-17T02:54:50.620Z,19.10
2018-08-17T03:04:53.917Z,19.10
2018-08-17T03:14:57.287Z,19.20
2018-08-17T03:25:00.627Z,19.20
2018-08-17T03:35:05.013Z,19.20
2018-08-17T03:45:08.941Z,19.10
2018-08-17T03:55:12.238Z,19.20
2018-08-17T04:05:15.787Z,19.20
2018-08-17T04:15:19.113Z,19.10
2018-08-17T04:25:22.485Z,19.10
2018-08-17T04:35:26.277Z,19.10
2018-08-17T04:45:29.612Z,19.30
2018-08-17T04:55:32.990Z,19.20
2018-08-17T05:05:43.132Z,19.10
2018-08-17T05:15:46.737Z,19.10
2018-08-17T05:25:50.111Z,18.80
2018-08-17T05:35:53.545Z,18.60
2018-08-17T05:45:57.137Z,18.60
2018-08-17T05:56:00.751Z,18.60
2018-08-17T06:06:04.563Z,18.50
2018-08-17T06:16:08.078Z,18.50
2018-08-17T06:26:11.597Z,18.30
2018-08-17T06:36:14.970Z,18.10
2018-08-17T06:46:18.327Z,18.00
2018-08-17T06:56:21.789Z,18.00
2018-08-17T07:06:25.411Z,18.10
2018-08-17T07:16:29.236Z,18.20
2018-08-17T07:26:32.857Z,18.50
2018-08-17T07:36:37.265Z,18.80
2018-08-17T07:46:40.716Z,19.00
2018-08-17T07:56:44.116Z,19.30
2018-08-17T08:06:48.255Z,19.50
2018-08-17T08:16:51.882Z,20.00
2018-08-17T08:26:55.551Z,20.30
2018-08-17T08:36:59.142Z,20.20
2018-08-17T08:47:02.681Z,19.90
2018-08-17T08:57:06.067Z,19.80
2018-08-17T09:07:09.608Z,19.30
2018-08-17T09:17:12.962Z,19.10
2018-08-17T09:27:16.231Z,19.30
2018-08-17T09:37:19.718Z,19.50
2018-08-17T09:47:23.265Z,19.60
2018-08-17T09:57:26.918Z,19.70
2018-08-17T10:07:35.955Z,20.60
2018-08-17T10:17:39.319Z,21.40
2018-08-17T10:27:43.191Z,21.50
2018-08-17T10:37:46.662Z,21.70
2018-08-17T10:47:50.883Z,21.40
2018-08-17T10:57:54.322Z,21.10
2018-08-17T11:07:57.711Z,20.20
2018-08-17T11:18:01.078Z,19.60
2018-08-17T11:28:04.537Z,19.40
2018-08-17T11:38:14.339Z,20.00
2018-08-17T11:48:27.311Z,20.30
2018-08-17T11:58:30.673Z,20.50
2018-08-17T12:08:34.111Z,21.10
2018-08-17T12:18:37.436Z,21.90
2018-08-17T12:28:40.988Z,22.30
2018-08-17T12:38:44.334Z,22.50
2018-08-17T12:48:47.721Z,22.60
2018-08-17T12:58:51.154Z,22.80
2018-08-17T13:08:54.465Z,22.70
2018-08-17T13:18:58.008Z,22.80
2018-08-17T13:29:07.985Z,22.90
2018-08-17T13:39:11.558Z,23.00
2018-08-17T13:49:15.335Z,23.00
2018-08-17T13:59:20.735Z,23.60
2018-08-17T14:09:25.102Z,24.00
2018-08-17T14:19:28.978Z,23.90
2018-08-17T14:29:32.596Z,24.20
2018-08-17T14:39:35.930Z,24.80
2018-08-17T14:49:39.233Z,24.60
2018-08-17T14:59:42.594Z,24.00
2018-08-17T15:09:45.927Z,23.80
2018-08-17T15:19:49.224Z,24.40
2018-08-17T15:29:52.787Z,24.80
2018-08-17T15:39:56.069Z,25.00
2018-08-17T15:50:12.894Z,24.80
2018-08-17T16:00:18.583Z,25.60
2018-08-17T16:10:22.008Z,24.60
2018-08-17T16:20:25.415Z,23.90
2018-08-17T16:30:29.105Z,25.00
2018-08-17T16:40:37.186Z,24.80
2018-08-17T16:50:40.649Z,24.70
2018-08-17T17:00:44.239Z,24.10
2018-08-17T17:10:47.538Z,23.80
2018-08-17T17:20:51.561Z,23.60
2018-08-17T17:30:55.269Z,23.40
2018-08-17T17:40:58.747Z,23.10
2018-08-17T17:51:02.270Z,22.80
2018-08-17T18:01:07.123Z,22.70
2018-08-17T18:11:10.740Z,22.50
2018-08-17T18:21:14.130Z,22.10
2018-08-17T18:31:17.801Z,21.90
2018-08-17T18:41:21.067Z,21.50
2018-08-17T18:51:24.782Z,21.30
2018-08-17T19:01:28.922Z,21.10
2018-08-17T19:11:32.211Z,20.90
2018-08-17T19:21:35.538Z,20.30
2018-08-17T19:31:47.487Z,19.90
2018-08-17T19:41:50.910Z,19.50
2018-08-17T19:51:54.578Z,19.20
2018-08-17T20:01:58.357Z,19.00
2018-08-17T20:12:02.398Z,18.70
2018-08-17T20:22:11.639Z,18.50
2018-08-17T20:35:19.008Z,18.10
2018-08-17T20:41:23.501Z,18.00
2018-08-17T20:47:27.391Z,17.90
2018-08-17T20:53:31.413Z,17.80
2018-08-17T20:59:35.720Z,17.60
2018-08-17T21:05:40.469Z,17.40
2018-08-17T21:11:45.331Z,17.20
2018-08-17T21:17:49.194Z,17.10
2018-08-17T21:23:53.049Z,17.00
2018-08-17T21:29:56.564Z,16.90
2018-08-17T21:36:00.299Z,16.90
2018-08-17T21:42:04.114Z,16.90
2018-08-17T21:48:14.990Z,16.90
2018-08-17T21:54:18.621Z,16.70
2018-08-17T22:00:29.957Z,16.70
2018-08-17T22:06:34.071Z,16.60
2018-08-17T22:12:37.847Z,16.60
2018-08-17T22:18:41.289Z,16.50
2018-08-17T22:24:52.686Z,16.30
2018-08-17T22:30:56.263Z,16.10
2018-08-17T22:37:05.326Z,16.00
2018-08-17T22:43:08.937Z,15.90
2018-08-17T22:49:12.525Z,15.80
2018-08-17T22:55:16.017Z,15.90
2018-08-17T23:01:20.338Z,15.80
2018-08-17T23:07:23.716Z,15.60
2018-08-17T23:13:26.961Z,15.50
2018-08-17T23:19:30.843Z,15.50
2018-08-17T23:25:34.528Z,15.50
2018-08-17T23:31:37.958Z,15.30
2018-08-17T23:37:41.229Z,15.30
2018-08-17T23:43:44.490Z,15.30
2018-08-17T23:49:47.905Z,15.20
2018-08-17T23:55:51.297Z,15.20
